Time;durP1;ratioP1;P1;durP2;ratioP2;P2;SDS_P1;SDS_P2;PMS_P1;PMS_P2;Temp;Humidity;BMP_temperature;BMP_pressure;BME280_temperature;BME280_humidity;BME280_pressure;Samples;Min_cycle;Max_cycle;Signal;HPM_P1;HPM_P2
2020/12/07 00:01:48;;;;;;;84.65;36.92;;;3.90;99.90;;;;;;5092512;28;20055;-69
2020/12/07 00:04:14;;;;;;;86.32;36.55;;;4.00;99.90;;;;;;5092748;28;20032;-69
2020/12/07 00:06:39;;;;;;;85.85;36.03;;;3.90;99.90;;;;;;5075581;28;20032;-69
2020/12/07 00:09:06;;;;;;;71.88;33.45;;;3.90;99.90;;;;;;5094283;28;20032;-69
2020/12/07 00:11:32;;;;;;;79.15;33.13;;;4.00;99.90;;;;;;5092700;28;20423;-69
2020/12/07 00:13:59;;;;;;;76.25;33.72;;;3.90;99.90;;;;;;5094218;28;20035;-69
2020/12/07 00:16:24;;;;;;;80.10;35.75;;;4.00;99.90;;;;;;5094192;28;20020;-69
2020/12/07 00:18:50;;;;;;;76.55;35.28;;;4.00;99.90;;;;;;5094152;28;20434;-69
2020/12/07 00:21:15;;;;;;;84.28;35.20;;;4.00;99.90;;;;;;5093858;28;20358;-69
2020/12/07 00:23:41;;;;;;;90.40;35.55;;;3.90;99.90;;;;;;5092659;28;20028;-69
2020/12/07 00:26:08;;;;;;;83.78;35.25;;;3.90;99.90;;;;;;5094012;28;20050;-69
2020/12/07 00:28:34;;;;;;;89.10;34.97;;;3.90;99.90;;;;;;5094064;28;20016;-69
2020/12/07 00:31:02;;;;;;;90.90;35.72;;;3.90;99.90;;;;;;5094052;28;20085;-69
2020/12/07 00:33:27;;;;;;;81.78;34.30;;;3.90;99.90;;;;;;5092850;28;20018;-69
2020/12/07 00:35:53;;;;;;;75.13;32.58;;;3.90;99.90;;;;;;5093942;28;20103;-69
2020/12/07 00:38:18;;;;;;;71.97;31.75;;;3.90;99.90;;;;;;5094887;28;20024;-69
2020/12/07 00:40:44;;;;;;;74.78;33.63;;;3.90;99.90;;;;;;5097763;28;20089;-69
2020/12/07 00:43:10;;;;;;;75.15;31.75;;;3.90;99.90;;;;;;5098028;28;20059;-69
2020/12/07 00:45:36;;;;;;;73.80;32.42;;;3.80;99.90;;;;;;5096521;28;20476;-69
2020/12/07 00:48:02;;;;;;;72.47;33.25;;;3.90;99.90;;;;;;5097948;28;20052;-69
2020/12/07 00:50:27;;;;;;;75.93;33.85;;;3.90;99.90;;;;;;5096498;28;20377;-69
2020/12/07 00:52:53;;;;;;;73.53;34.72;;;3.90;99.90;;;;;;5097871;28;20024;-69
2020/12/07 00:55:18;;;;;;;77.40;34.22;;;3.90;99.90;;;;;;5096380;28;20027;-69
2020/12/07 00:57:44;;;;;;;80.25;34.45;;;3.90;99.90;;;;;;5095987;28;20111;-69
2020/12/07 01:00:10;;;;;;;81.30;36.53;;;3.90;99.90;;;;;;5097470;28;20028;-69
2020/12/07 01:02:36;;;;;;;88.60;38.25;;;3.90;99.90;;;;;;5097212;28;20089;-69
2020/12/07 01:05:01;;;;;;;93.60;39.70;;;3.90;99.90;;;;;;5095667;28;20052;-69
2020/12/07 01:07:27;;;;;;;88.40;38.38;;;3.80;99.90;;;;;;5097576;28;20031;-69
2020/12/07 01:09:53;;;;;;;83.97;37.45;;;3.90;99.90;;;;;;5095759;28;20115;-69
2020/12/07 01:12:19;;;;;;;84.72;36.63;;;3.90;99.90;;;;;;5095651;28;20077;-69
2020/12/07 01:14:45;;;;;;;87.55;37.95;;;3.80;99.90;;;;;;5097153;28;20419;-69
2020/12/07 01:17:12;;;;;;;80.93;36.22;;;3.90;99.90;;;;;;5097427;28;20024;-69
2020/12/07 01:19:37;;;;;;;80.60;35.88;;;3.90;99.90;;;;;;5097402;28;20024;-69
2020/12/07 01:22:03;;;;;;;86.57;37.95;;;3.90;99.90;;;;;;5097044;28;20385;-69
2020/12/07 01:24:28;;;;;;;88.20;38.70;;;3.80;99.90;;;;;;5097036;28;20035;-69
2020/12/07 01:26:54;;;;;;;88.95;37.67;;;3.80;99.90;;;;;;5096847;28;20074;-69
2020/12/07 01:29:20;;;;;;;79.13;34.03;;;3.80;99.90;;;;;;5096158;28;20115;-69
2020/12/07 01:31:46;;;;;;;74.82;35.30;;;3.70;99.90;;;;;;5097161;28;20081;-69
2020/12/07 01:34:11;;;;;;;74.57;33.50;;;3.70;99.90;;;;;;5096822;28;20110;-69
2020/12/07 01:36:37;;;;;;;74.35;32.25;;;3.80;99.90;;;;;;5097042;28;20102;-69
2020/12/07 01:39:03;;;;;;;71.95;33.20;;;3.80;99.90;;;;;;5096991;28;20094;-69
2020/12/07 01:41:29;;;;;;;74.22;33.90;;;3.90;99.90;;;;;;5096972;28;20048;-69
2020/12/07 01:43:54;;;;;;;79.82;38.55;;;3.90;99.90;;;;;;5096299;28;20060;-69
2020/12/07 01:46:22;;;;;;;80.57;36.50;;;3.90;99.90;;;;;;5095598;28;20032;-69
2020/12/07 01:48:49;;;;;;;81.07;34.00;;;3.90;99.90;;;;;;5095133;28;20013;-69
2020/12/07 01:51:15;;;;;;;74.90;34.28;;;3.90;99.90;;;;;;5095907;28;20012;-68
2020/12/07 01:53:43;;;;;;;75.43;34.25;;;4.00;99.90;;;;;;5096430;28;20504;-69
2020/12/07 01:56:14;;;;;;;82.45;34.97;;;4.00;99.90;;;;;;5094914;28;20471;-69
2020/12/07 01:58:41;;;;;;;74.35;33.95;;;3.90;99.90;;;;;;5096588;28;20032;-69
2020/12/07 02:01:07;;;;;;;76.55;31.77;;;3.90;99.90;;;;;;5077974;28;20024;-69
2020/12/07 02:03:33;;;;;;;70.30;30.38;;;3.90;99.90;;;;;;5095550;28;20028;-69
2020/12/07 02:05:59;;;;;;;72.00;32.45;;;3.90;99.90;;;;;;5094435;28;20036;-69
2020/12/07 02:09:19;;;;;;;67.85;31.92;;;3.90;99.90;;;;;;5096427;28;20073;-69
2020/12/07 02:11:44;;;;;;;74.07;32.35;;;3.90;99.90;;;;;;5095776;28;20473;-69
2020/12/07 02:14:10;;;;;;;71.97;33.35;;;3.80;99.90;;;;;;5096247;28;20034;-69
2020/12/07 02:16:35;;;;;;;75.38;33.13;;;3.80;99.90;;;;;;5096234;28;20024;-69
2020/12/07 02:19:01;;;;;;;75.85;32.70;;;3.80;99.90;;;;;;5096167;28;20032;-69
2020/12/07 02:21:26;;;;;;;78.85;33.38;;;3.80;99.90;;;;;;5096183;28;20425;-69
2020/12/07 02:23:52;;;;;;;76.15;33.20;;;3.90;99.90;;;;;;5094716;28;20423;-69
2020/12/07 02:26:18;;;;;;;87.60;38.55;;;3.90;99.90;;;;;;5095709;28;20020;-69
2020/12/07 02:28:43;;;;;;;90.80;38.35;;;3.90;99.90;;;;;;5095970;28;20021;-69
2020/12/07 02:31:08;;;;;;;91.55;37.15;;;3.90;99.90;;;;;;5095971;28;20027;-69
2020/12/07 02:33:34;;;;;;;99.57;39.38;;;3.90;99.90;;;;;;5095631;28;20062;-69
2020/12/07 02:35:59;;;;;;;88.03;37.97;;;3.80;99.90;;;;;;5095841;28;20031;-69
2020/12/07 02:38:25;;;;;;;90.20;36.88;;;3.80;99.90;;;;;;5094640;28;20358;-69
2020/12/07 02:40:51;;;;;;;81.35;36.03;;;3.90;99.90;;;;;;5095503;28;20032;-69
2020/12/07 02:43:16;;;;;;;88.57;34.65;;;3.90;99.90;;;;;;5095166;28;20031;-69
2020/12/07 02:45:50;;;;;;;80.97;34.30;;;3.90;99.90;;;;;;5094629;28;20024;-69
2020/12/07 02:48:15;;;;;;;83.38;34.45;;;3.90;99.90;;;;;;5095071;28;20016;-69
2020/12/07 02:50:41;;;;;;;78.25;32.97;;;3.90;99.90;;;;;;5094059;28;20024;-69
2020/12/07 02:53:06;;;;;;;69.43;31.35;;;3.90;99.90;;;;;;5095493;28;20059;-69
2020/12/07 02:55:32;;;;;;;67.13;28.05;;;3.90;99.90;;;;;;5076816;28;20069;-69
2020/12/07 02:57:57;;;;;;;62.03;27.65;;;3.90;99.90;;;;;;5095499;28;20034;-69
2020/12/07 03:00:23;;;;;;;67.30;29.02;;;3.80;99.90;;;;;;5094419;28;20520;-69
2020/12/07 03:02:49;;;;;;;62.38;28.02;;;3.80;99.90;;;;;;5095385;28;20043;-69
2020/12/07 03:05:14;;;;;;;65.85;28.77;;;3.90;99.90;;;;;;5094807;28;20059;-69
2020/12/07 03:07:40;;;;;;;62.38;28.25;;;3.90;99.90;;;;;;5094641;28;20028;-69
2020/12/07 03:10:05;;;;;;;62.58;28.58;;;3.80;99.90;;;;;;5093830;28;20024;-69
2020/12/07 03:12:31;;;;;;;61.65;27.35;;;3.80;99.90;;;;;;5095187;28;20449;-69
2020/12/07 03:14:56;;;;;;;61.88;25.75;;;3.80;99.90;;;;;;5095172;28;20084;-69
2020/12/07 03:17:22;;;;;;;59.85;27.15;;;3.80;99.90;;;;;;5093955;28;20035;-69
2020/12/07 03:19:47;;;;;;;57.80;25.83;;;3.80;99.90;;;;;;5094795;28;20381;-69
2020/12/07 03:22:13;;;;;;;58.83;26.20;;;3.80;99.90;;;;;;5093827;28;20039;-69
2020/12/07 03:24:39;;;;;;;55.20;25.33;;;3.80;99.90;;;;;;5094943;28;20027;-69
2020/12/07 03:27:04;;;;;;;55.13;25.13;;;3.80;99.90;;;;;;5094805;28;20024;-69
2020/12/07 03:29:30;;;;;;;55.95;25.67;;;3.80;99.90;;;;;;5094910;28;20034;-69
2020/12/07 03:31:55;;;;;;;56.53;25.38;;;3.80;99.90;;;;;;5076730;28;20403;-69
2020/12/07 03:34:21;;;;;;;58.00;24.75;;;3.80;99.90;;;;;;5093647;28;20027;-69
2020/12/07 03:36:48;;;;;;;53.35;24.85;;;3.80;99.90;;;;;;5094753;28;20024;-69
2020/12/07 03:39:13;;;;;;;53.22;23.35;;;3.80;99.90;;;;;;5094482;28;20020;-69
2020/12/07 03:41:39;;;;;;;51.45;23.73;;;3.80;99.90;;;;;;5094386;28;20028;-69
2020/12/07 03:44:04;;;;;;;48.72;21.77;;;3.80;99.90;;;;;;5094638;28;20032;-69
2020/12/07 03:46:30;;;;;;;49.28;22.67;;;3.80;99.90;;;;;;5094199;28;20054;-69
2020/12/07 03:48:55;;;;;;;50.35;22.20;;;3.80;99.90;;;;;;5092864;28;20020;-69
2020/12/07 03:51:21;;;;;;;54.47;23.38;;;3.80;99.90;;;;;;5094503;28;20389;-69
2020/12/07 03:53:47;;;;;;;51.70;21.48;;;3.80;99.90;;;;;;5094549;28;20077;-69
2020/12/07 03:56:12;;;;;;;45.63;22.17;;;3.70;99.90;;;;;;5094450;28;20028;-69
2020/12/07 03:58:38;;;;;;;46.35;21.77;;;3.70;99.90;;;;;;5075768;28;20028;-69
2020/12/07 04:01:05;;;;;;;43.28;21.42;;;3.70;99.90;;;;;;5094651;28;20028;-69
2020/12/07 04:03:32;;;;;;;47.10;20.85;;;3.70;99.90;;;;;;5094068;28;20024;-69
2020/12/07 04:06:34;;;;;;;34.30;17.40;;;3.70;99.90;;;;;;5093640;28;20098;-69
2020/12/07 04:08:44;;;;;;;31.55;16.58;;;3.80;99.90;;;;;;5093586;28;20024;-69
2020/12/07 04:11:10;;;;;;;34.78;18.25;;;3.80;99.90;;;;;;5092748;28;20034;-69
2020/12/07 04:13:35;;;;;;;34.58;17.90;;;3.70;99.90;;;;;;5092345;28;20097;-69
2020/12/07 04:16:03;;;;;;;38.88;18.65;;;3.80;99.90;;;;;;5092706;28;20098;-69
2020/12/07 04:18:28;;;;;;;32.55;17.33;;;3.80;99.90;;;;;;5094114;28;20073;-69
2020/12/07 04:20:54;;;;;;;34.35;18.25;;;3.80;99.90;;;;;;5094086;28;20031;-69
2020/12/07 04:23:20;;;;;;;32.97;17.48;;;3.70;99.90;;;;;;5093816;28;20108;-69
2020/12/07 04:25:45;;;;;;;34.38;16.85;;;3.80;99.90;;;;;;5092167;28;20462;-69
2020/12/07 04:28:11;;;;;;;35.25;17.05;;;3.80;99.90;;;;;;5075683;28;20027;-69
2020/12/07 04:30:40;;;;;;;35.10;16.52;;;3.80;99.90;;;;;;5094049;28;20158;-69
2020/12/07 04:33:05;;;;;;;31.48;16.77;;;3.80;99.90;;;;;;5094036;28;20024;-69
2020/12/07 04:35:31;;;;;;;33.53;16.20;;;3.80;99.90;;;;;;5092552;28;20377;-69
2020/12/07 04:37:57;;;;;;;34.38;17.05;;;3.80;99.90;;;;;;5093935;28;20063;-69
2020/12/07 04:40:23;;;;;;;29.63;15.02;;;3.80;99.90;;;;;;5093952;28;20052;-69
2020/12/07 04:42:50;;;;;;;31.27;15.30;;;3.90;99.90;;;;;;5093386;28;20060;-69
2020/12/07 04:45:15;;;;;;;34.38;16.35;;;3.90;99.90;;;;;;5093938;28;20035;-69
2020/12/07 04:47:44;;;;;;;28.33;15.40;;;3.90;99.90;;;;;;5093817;28;20365;-69
2020/12/07 04:50:10;;;;;;;28.30;15.13;;;3.90;99.90;;;;;;5093895;28;20036;-69
2020/12/07 04:52:36;;;;;;;29.77;15.35;;;3.90;99.90;;;;;;5093908;28;20360;-69
2020/12/07 04:55:03;;;;;;;24.80;13.60;;;3.80;99.90;;;;;;5093872;28;20047;-69
2020/12/07 04:57:30;;;;;;;23.55;13.30;;;3.90;99.90;;;;;;5092020;28;20024;-69
2020/12/07 04:59:57;;;;;;;26.70;14.32;;;3.90;99.90;;;;;;5093266;28;20024;-69
2020/12/07 05:02:24;;;;;;;26.00;14.55;;;3.90;99.90;;;;;;5092532;28;20412;-69
2020/12/07 05:04:50;;;;;;;28.42;14.95;;;3.80;99.90;;;;;;5093360;28;20154;-69
2020/12/07 05:07:16;;;;;;;24.00;14.02;;;3.80;99.90;;;;;;5091882;28;20115;-69
2020/12/07 05:09:41;;;;;;;25.05;13.38;;;3.80;99.90;;;;;;5093075;28;20055;-69
2020/12/07 05:12:17;;;;;;;22.70;13.40;;;3.90;99.90;;;;;;5093422;28;20031;-69
2020/12/07 05:14:43;;;;;;;24.35;13.50;;;3.90;99.90;;;;;;5092721;28;20020;-69
2020/12/07 05:17:09;;;;;;;28.90;14.85;;;3.80;99.90;;;;;;5093101;28;20061;-69
2020/12/07 05:19:35;;;;;;;28.08;14.90;;;3.80;99.90;;;;;;5093647;28;20097;-69
2020/12/07 05:22:00;;;;;;;27.50;14.10;;;3.80;99.90;;;;;;5093586;28;20028;-69
2020/12/07 05:24:26;;;;;;;30.67;15.38;;;3.80;99.90;;;;;;5093319;28;20024;-69
2020/12/07 05:26:53;;;;;;;24.80;14.30;;;3.90;99.90;;;;;;5096176;28;20036;-69
2020/12/07 05:29:33;;;;;;;26.33;14.05;;;3.80;99.90;;;;;;5095826;28;20024;-69
2020/12/07 05:31:59;;;;;;;30.02;15.02;;;3.80;99.90;;;;;;5095763;28;20466;-69
2020/12/07 05:34:26;;;;;;;24.13;14.07;;;3.80;99.90;;;;;;5096897;28;20074;-69
2020/12/07 05:36:58;;;;;;;25.90;13.77;;;3.90;99.90;;;;;;5097131;28;20020;-68
2020/12/07 05:39:25;;;;;;;28.95;14.75;;;3.90;99.90;;;;;;5096694;28;20081;-68
2020/12/07 05:41:53;;;;;;;29.75;15.02;;;3.90;99.90;;;;;;5095495;28;20032;-69
2020/12/07 05:44:21;;;;;;;30.17;15.25;;;3.90;99.90;;;;;;5095127;28;20445;-69
2020/12/07 05:46:48;;;;;;;28.50;15.13;;;3.90;99.90;;;;;;5094964;28;20024;-68
2020/12/07 05:49:16;;;;;;;28.27;15.88;;;3.90;99.90;;;;;;5095113;28;20023;-69
2020/12/07 05:51:51;;;;;;;35.33;16.63;;;4.00;99.90;;;;;;5096768;28;20031;-69
2020/12/07 05:54:19;;;;;;;32.78;16.52;;;3.90;99.90;;;;;;5096712;28;20019;-69
2020/12/07 05:56:48;;;;;;;32.65;16.40;;;4.00;99.90;;;;;;5096689;28;20024;-69
2020/12/07 05:59:22;;;;;;;38.97;17.77;;;4.00;99.90;;;;;;5096532;28;20107;-69
2020/12/07 06:01:50;;;;;;;42.38;19.60;;;4.10;99.90;;;;;;5096111;28;20362;-69
2020/12/07 06:04:17;;;;;;;42.55;20.38;;;4.10;99.90;;;;;;5095952;28;20371;-69
2020/12/07 06:06:47;;;;;;;42.00;19.65;;;4.10;99.90;;;;;;5096375;28;20042;-69
2020/12/07 06:09:20;;;;;;;40.15;19.13;;;4.20;99.90;;;;;;5094528;28;20020;-69
2020/12/07 06:11:56;;;;;;;42.53;19.80;;;4.20;99.90;;;;;;5096056;28;20461;-68
2020/12/07 06:14:22;;;;;;;44.00;21.35;;;4.20;99.90;;;;;;5077732;28;20028;-69
2020/12/07 06:16:50;;;;;;;45.17;21.73;;;4.20;99.90;;;;;;5096064;28;20051;-68
2020/12/07 06:19:17;;;;;;;51.20;23.58;;;4.30;99.90;;;;;;5096144;28;20099;-69
2020/12/07 06:22:00;;;;;;;47.42;23.27;;;4.30;99.90;;;;;;5095784;28;20023;-69
2020/12/07 06:24:42;;;;;;;50.50;24.33;;;4.30;99.90;;;;;;5094484;28;20020;-68
2020/12/07 06:27:11;;;;;;;50.08;24.48;;;4.20;99.90;;;;;;5095610;28;20028;-68
2020/12/07 06:29:37;;;;;;;50.65;23.45;;;4.30;99.90;;;;;;5077879;28;20073;-69
2020/12/07 06:32:03;;;;;;;51.28;24.02;;;4.30;99.90;;;;;;5095325;28;20031;-69
2020/12/07 06:34:41;;;;;;;53.38;24.63;;;4.30;99.90;;;;;;5095946;28;20020;-68
2020/12/07 06:37:09;;;;;;;48.53;24.52;;;4.30;99.90;;;;;;5095567;28;20023;-68
2020/12/07 06:39:43;;;;;;;49.08;24.70;;;4.30;99.90;;;;;;5077334;28;20020;-68
2020/12/07 06:42:10;;;;;;;54.15;25.35;;;4.30;99.90;;;;;;5094354;28;20024;-68
2020/12/07 06:44:43;;;;;;;55.70;26.60;;;4.30;99.90;;;;;;5076810;28;20429;-71
2020/12/07 06:47:16;;;;;;;55.05;27.48;;;4.30;99.90;;;;;;5072957;28;20029;-71
2020/12/07 06:52:28;;;;;;;54.75;27.02;;;4.40;99.90;;;;;;5111129;27;20351;-69
2020/12/07 06:55:12;;;;;;;57.63;27.50;;;4.40;99.90;;;;;;5110453;28;20030;-69
2020/12/07 06:57:49;;;;;;;62.20;30.33;;;4.40;99.90;;;;;;5111010;28;20055;-69
2020/12/07 07:00:25;;;;;;;58.03;28.17;;;4.30;99.90;;;;;;5110646;28;20054;-67
2020/12/07 07:02:53;;;;;;;62.80;29.55;;;4.40;99.90;;;;;;5110123;28;20484;-67
2020/12/07 07:05:20;;;;;;;60.90;28.15;;;4.40;99.90;;;;;;5089621;28;20049;-68
2020/12/07 07:07:46;;;;;;;64.55;30.15;;;4.40;99.90;;;;;;5090735;28;20031;-67
2020/12/07 07:10:14;;;;;;;64.15;29.65;;;4.40;99.90;;;;;;5101511;28;20061;-67
2020/12/07 07:12:41;;;;;;;59.47;29.02;;;4.50;99.90;;;;;;5109071;28;20391;-67
2020/12/07 07:15:08;;;;;;;60.15;30.00;;;4.40;99.90;;;;;;5106803;28;20020;-68
2020/12/07 07:17:36;;;;;;;61.33;30.42;;;4.40;99.90;;;;;;5109863;28;20024;-68
2020/12/07 07:20:04;;;;;;;62.42;30.17;;;4.40;99.90;;;;;;5109105;28;20016;-67
2020/12/07 07:22:30;;;;;;;61.13;30.33;;;4.40;99.90;;;;;;5110409;28;20028;-67
2020/12/07 07:25:05;;;;;;;61.17;30.50;;;4.40;99.90;;;;;;5109843;28;20137;-68
2020/12/07 07:30:18;;;;;;;68.90;32.97;;;4.40;99.90;;;;;;5109738;28;20069;-68
2020/12/07 07:32:46;;;;;;;67.75;32.83;;;4.40;99.90;;;;;;5089008;28;20016;-68
2020/12/07 07:35:13;;;;;;;65.80;29.90;;;4.40;99.90;;;;;;5107869;28;20094;-68
2020/12/07 07:37:39;;;;;;;69.78;32.88;;;4.40;99.90;;;;;;5114483;28;20415;-68
2020/12/07 07:40:08;;;;;;;66.60;32.88;;;4.40;99.90;;;;;;5108231;28;20031;-68
2020/12/07 07:42:41;;;;;;;69.15;32.83;;;4.40;99.90;;;;;;5108200;28;20020;-68
2020/12/07 07:45:07;;;;;;;65.65;31.85;;;4.40;99.90;;;;;;5108672;28;20391;-68
2020/12/07 07:47:42;;;;;;;68.18;33.17;;;4.40;99.90;;;;;;5106626;28;20471;-69
2020/12/07 07:54:08;;;;;;;67.78;33.38;;;4.30;99.90;;;;;;5100796;28;20115;-66
2020/12/07 08:08:11;;;;;;;73.18;34.55;;;4.30;99.90;;;;;;5094636;28;20078;-67
2020/12/07 08:17:55;;;;;;;66.15;33.42;;;4.30;99.90;;;;;;5100092;27;20402;-67
2020/12/07 08:20:24;;;;;;;62.40;31.48;;;4.30;99.90;;;;;;5103361;28;20024;-67
2020/12/07 08:23:07;;;;;;;57.55;29.13;;;4.30;99.90;;;;;;5097365;28;20016;-68
2020/12/07 08:25:44;;;;;;;52.53;28.20;;;4.30;99.90;;;;;;5093377;28;20311;-67
2020/12/07 08:28:42;;;;;;;55.10;27.70;;;4.30;99.90;;;;;;5095795;28;20074;-68
2020/12/07 08:31:12;;;;;;;53.30;27.40;;;4.30;99.90;;;;;;5100718;28;20024;-67
2020/12/07 08:33:52;;;;;;;47.83;27.27;;;4.40;99.90;;;;;;5109378;28;20169;-67
2020/12/07 08:36:17;;;;;;;48.47;26.92;;;4.30;99.90;;;;;;5103642;28;20430;-68
2020/12/07 08:38:45;;;;;;;50.83;28.67;;;4.30;99.90;;;;;;5101566;28;20034;-67
2020/12/07 08:43:55;;;;;;;53.10;26.45;;;4.40;99.90;;;;;;5108907;27;20742;-66
2020/12/07 08:46:23;;;;;;;54.10;30.52;;;4.40;99.90;;;;;;5087927;28;20194;-66
2020/12/07 08:48:50;;;;;;;55.78;30.30;;;4.40;99.90;;;;;;5108267;28;20025;-68
2020/12/07 08:51:19;;;;;;;49.92;27.50;;;4.40;99.90;;;;;;5107890;28;20069;-69
2020/12/07 08:53:45;;;;;;;51.88;29.67;;;4.40;99.90;;;;;;5111033;28;20028;-68
2020/12/07 08:56:10;;;;;;;55.30;31.05;;;4.40;99.90;;;;;;5108789;28;20030;-68
2020/12/07 08:58:37;;;;;;;54.75;30.33;;;4.40;99.90;;;;;;5108497;28;20028;-68
2020/12/07 09:01:05;;;;;;;51.20;29.15;;;4.40;99.90;;;;;;5108828;28;20069;-68
2020/12/07 09:03:32;;;;;;;57.53;31.65;;;4.40;99.90;;;;;;5108143;28;20027;-68
2020/12/07 09:06:01;;;;;;;56.40;31.42;;;4.40;99.90;;;;;;5071417;28;20040;-68
2020/12/07 09:08:26;;;;;;;57.47;31.42;;;4.50;99.90;;;;;;5067744;28;20115;-69
2020/12/07 09:10:52;;;;;;;55.75;30.35;;;4.50;99.90;;;;;;5099223;28;20524;-68
2020/12/07 09:13:17;;;;;;;55.55;29.63;;;4.50;99.90;;;;;;5100687;28;20027;-69
2020/12/07 09:15:43;;;;;;;55.15;29.80;;;4.50;99.90;;;;;;5082027;28;20122;-69
2020/12/07 09:18:09;;;;;;;52.20;29.92;;;4.50;99.90;;;;;;5104996;28;20507;-68
2020/12/07 09:20:35;;;;;;;50.35;27.05;;;4.50;99.90;;;;;;5110063;28;20034;-68
2020/12/07 09:23:00;;;;;;;52.25;29.27;;;4.50;99.90;;;;;;5092149;28;20028;-68
2020/12/07 09:25:26;;;;;;;55.75;30.17;;;4.50;99.90;;;;;;5110783;28;20019;-71
2020/12/07 09:27:52;;;;;;;48.40;27.10;;;4.50;99.90;;;;;;5091075;28;20043;-71
2020/12/07 09:30:17;;;;;;;53.08;27.85;;;4.50;99.90;;;;;;5108953;28;20019;-71
2020/12/07 09:32:43;;;;;;;46.50;26.30;;;4.50;99.90;;;;;;5109399;28;20035;-71
2020/12/07 09:35:09;;;;;;;47.90;27.48;;;4.50;99.90;;;;;;5109847;28;20325;-71
2020/12/07 09:37:36;;;;;;;51.00;29.10;;;4.50;99.90;;;;;;5109777;28;20027;-68
2020/12/07 09:40:04;;;;;;;46.88;25.58;;;4.50;99.90;;;;;;5088182;28;20020;-69
2020/12/07 09:42:31;;;;;;;51.53;26.77;;;4.50;99.90;;;;;;5092657;28;20056;-68
2020/12/07 09:44:56;;;;;;;49.75;26.60;;;4.50;99.90;;;;;;5087972;28;20046;-68
2020/12/07 09:47:22;;;;;;;49.75;28.73;;;4.50;99.90;;;;;;5089654;28;20430;-68
2020/12/07 09:49:48;;;;;;;49.67;25.08;;;4.50;99.90;;;;;;5109033;28;20032;-70
2020/12/07 09:52:13;;;;;;;43.63;23.05;;;4.40;99.90;;;;;;5109131;28;20105;-68
2020/12/07 09:54:39;;;;;;;48.65;26.63;;;4.40;99.90;;;;;;5097925;28;20103;-69
2020/12/07 09:57:06;;;;;;;48.60;28.27;;;4.50;99.90;;;;;;5095991;28;20032;-68
2020/12/07 09:59:33;;;;;;;43.38;24.33;;;4.50;99.90;;;;;;5095051;28;20024;-68
2020/12/07 10:01:59;;;;;;;43.78;21.48;;;4.50;99.90;;;;;;5096179;28;20020;-69
2020/12/07 10:04:25;;;;;;;45.65;24.30;;;4.50;99.90;;;;;;5094673;28;20449;-69
2020/12/07 10:06:51;;;;;;;41.28;22.58;;;4.40;99.90;;;;;;5096010;28;20114;-68
2020/12/07 10:09:17;;;;;;;38.80;21.60;;;4.40;99.90;;;;;;5072832;28;20462;-68
2020/12/07 10:11:42;;;;;;;42.17;22.73;;;4.40;99.90;;;;;;5083830;28;20033;-68
2020/12/07 10:14:08;;;;;;;38.42;21.88;;;4.40;99.90;;;;;;5089964;28;20024;-68
2020/12/07 10:16:35;;;;;;;35.03;18.73;;;4.40;99.90;;;;;;5094113;28;20024;-68
2020/12/07 10:19:00;;;;;;;35.45;19.42;;;4.40;99.90;;;;;;5095621;28;20066;-69
2020/12/07 10:21:26;;;;;;;33.42;19.23;;;4.50;99.90;;;;;;5095211;28;20051;-69
2020/12/07 10:23:52;;;;;;;33.72;19.73;;;4.50;99.90;;;;;;5094264;28;20100;-67
2020/12/07 10:26:23;;;;;;;31.25;18.00;;;4.50;99.90;;;;;;5089240;28;20486;-67
2020/12/07 10:28:48;;;;;;;35.53;19.00;;;4.60;99.90;;;;;;5095166;28;20463;-67
2020/12/07 10:31:14;;;;;;;31.13;18.83;;;4.60;99.90;;;;;;5094539;28;20020;-68
2020/12/07 10:33:39;;;;;;;31.15;17.27;;;4.60;99.90;;;;;;5094931;28;20032;-68
2020/12/07 10:36:07;;;;;;;31.85;17.63;;;4.60;99.90;;;;;;5092720;28;20028;-67
2020/12/07 10:38:32;;;;;;;29.70;16.70;;;4.60;99.90;;;;;;5094848;28;20094;-68
2020/12/07 10:40:58;;;;;;;34.30;16.67;;;4.60;99.90;;;;;;5094236;28;20049;-68
2020/12/07 10:43:23;;;;;;;33.45;18.15;;;4.70;99.90;;;;;;5094709;28;20097;-68
2020/12/07 10:45:49;;;;;;;26.92;15.50;;;4.60;99.90;;;;;;5093676;28;20036;-68
2020/12/07 10:48:15;;;;;;;31.90;17.15;;;4.60;99.90;;;;;;5094772;28;20030;-68
2020/12/07 10:50:40;;;;;;;27.00;15.23;;;4.50;99.90;;;;;;5094796;28;20408;-68
2020/12/07 10:53:06;;;;;;;31.48;17.08;;;4.50;99.90;;;;;;5072460;28;20033;-67
2020/12/07 10:55:31;;;;;;;27.50;15.13;;;4.50;99.90;;;;;;5054018;28;20062;-67
2020/12/07 10:57:58;;;;;;;27.95;16.00;;;4.50;99.90;;;;;;5068976;28;20059;-66
2020/12/07 11:00:23;;;;;;;32.05;18.25;;;4.50;99.90;;;;;;5094246;28;20477;-67
2020/12/07 11:02:49;;;;;;;30.15;17.45;;;4.50;99.90;;;;;;5092544;28;20070;-67
2020/12/07 11:05:14;;;;;;;33.92;18.50;;;4.60;99.90;;;;;;5090847;28;20027;-67
2020/12/07 11:07:41;;;;;;;33.53;18.60;;;4.60;99.90;;;;;;5075494;28;20028;-68
2020/12/07 11:10:07;;;;;;;38.08;17.83;;;4.70;99.90;;;;;;5072457;28;20390;-66
2020/12/07 11:12:33;;;;;;;30.17;16.70;;;4.60;99.90;;;;;;5088386;28;20036;-68
2020/12/07 11:14:58;;;;;;;24.83;15.13;;;4.60;99.90;;;;;;5093542;28;20035;-67
2020/12/07 11:17:24;;;;;;;31.75;17.23;;;4.60;99.90;;;;;;5093068;28;20107;-68
2020/12/07 11:19:49;;;;;;;32.83;17.27;;;4.70;99.90;;;;;;5093517;28;20024;-67
2020/12/07 11:22:15;;;;;;;30.27;16.38;;;4.70;99.90;;;;;;5093270;28;20040;-67
2020/12/07 11:24:41;;;;;;;25.77;15.20;;;4.60;99.90;;;;;;5093018;28;20028;-68
2020/12/07 11:27:07;;;;;;;29.05;15.30;;;4.60;99.90;;;;;;5093212;28;20055;-68
2020/12/07 11:29:33;;;;;;;28.83;16.75;;;4.60;99.90;;;;;;5066181;28;20074;-68
2020/12/07 11:31:59;;;;;;;32.90;17.42;;;4.60;99.90;;;;;;5091350;28;20030;-68
2020/12/07 11:34:25;;;;;;;27.17;14.60;;;4.60;99.90;;;;;;5093918;28;20106;-68
2020/12/07 11:36:51;;;;;;;29.25;16.60;;;4.60;99.90;;;;;;5092494;28;20043;-69
2020/12/07 11:39:55;;;;;;;29.27;15.82;;;4.50;99.90;;;;;;5093391;28;20048;-69
2020/12/07 11:44:49;;;;;;;32.03;17.13;;;4.50;99.90;;;;;;5092926;28;20023;-69
2020/12/07 11:47:14;;;;;;;30.73;17.45;;;4.60;99.90;;;;;;5092105;28;20024;-68
2020/12/07 11:49:42;;;;;;;26.90;16.15;;;4.60;99.90;;;;;;5092815;28;20031;-68
2020/12/07 11:52:08;;;;;;;31.30;17.55;;;4.60;99.90;;;;;;5091004;28;20110;-68
2020/12/07 11:54:35;;;;;;;30.17;17.40;;;4.60;99.90;;;;;;5093302;28;20027;-67
2020/12/07 11:57:07;;;;;;;30.27;16.58;;;4.70;99.90;;;;;;5092701;28;20035;-68
2020/12/07 11:59:34;;;;;;;33.83;17.92;;;4.70;99.90;;;;;;5091289;28;20028;-69
2020/12/07 12:01:59;;;;;;;31.42;17.17;;;4.70;99.90;;;;;;5093663;28;20385;-69
2020/12/07 12:04:25;;;;;;;31.45;16.90;;;4.70;99.90;;;;;;5093647;28;20024;-69
2020/12/07 12:06:50;;;;;;;30.33;17.35;;;4.80;99.90;;;;;;5092471;28;20032;-69
2020/12/07 12:09:16;;;;;;;32.38;17.65;;;4.80;99.90;;;;;;5069579;28;20016;-69
2020/12/07 12:11:44;;;;;;;33.17;18.48;;;4.80;99.90;;;;;;5090861;28;20020;-69
2020/12/07 12:14:11;;;;;;;31.70;17.77;;;4.90;99.90;;;;;;5091688;28;20020;-69
2020/12/07 12:16:39;;;;;;;29.73;16.33;;;4.90;99.90;;;;;;5092784;28;20059;-69
2020/12/07 12:19:24;;;;;;;28.67;17.48;;;5.00;99.90;;;;;;5091582;28;20426;-69
2020/12/07 12:21:49;;;;;;;30.75;17.15;;;5.00;99.90;;;;;;5091700;28;20027;-69
2020/12/07 12:24:17;;;;;;;32.50;18.40;;;5.00;99.90;;;;;;5091539;28;20021;-69
2020/12/07 12:26:43;;;;;;;27.88;16.73;;;5.10;99.90;;;;;;5093239;28;20118;-70
2020/12/07 12:29:08;;;;;;;26.10;16.70;;;5.10;99.90;;;;;;5092406;28;20048;-70
2020/12/07 12:31:34;;;;;;;25.77;16.33;;;5.10;99.90;;;;;;5093048;28;20024;-70
2020/12/07 12:34:00;;;;;;;24.08;14.70;;;5.10;99.90;;;;;;5093272;28;20024;-70
2020/12/07 12:36:27;;;;;;;23.33;14.07;;;5.10;99.90;;;;;;5092464;28;20071;-70
2020/12/07 12:38:53;;;;;;;19.52;12.48;;;5.10;99.90;;;;;;5091486;28;20069;-69
2020/12/07 12:41:19;;;;;;;25.50;13.68;;;5.10;99.90;;;;;;5092484;28;20023;-69
2020/12/07 12:43:46;;;;;;;18.77;13.55;;;5.00;99.90;;;;;;5092754;28;20135;-69
2020/12/07 12:46:12;;;;;;;18.73;12.05;;;5.10;99.90;;;;;;5091541;28;20453;-69
2020/12/07 12:48:38;;;;;;;23.58;13.25;;;5.10;99.90;;;;;;5093223;28;20020;-70
2020/12/07 12:51:05;;;;;;;21.52;13.65;;;5.10;99.90;;;;;;5091989;28;20519;-69
2020/12/07 12:53:31;;;;;;;22.52;13.18;;;5.10;99.90;;;;;;5092127;28;20482;-68
2020/12/07 12:55:57;;;;;;;18.92;12.13;;;5.20;99.90;;;;;;5093106;28;20111;-69
2020/12/07 12:58:23;;;;;;;19.35;12.43;;;5.20;99.90;;;;;;5092583;28;20137;-70
2020/12/07 13:00:48;;;;;;;19.08;12.02;;;5.20;99.90;;;;;;5092848;28;20374;-70
2020/12/07 13:03:14;;;;;;;19.02;11.82;;;5.30;99.90;;;;;;5090539;28;20020;-70
2020/12/07 13:05:40;;;;;;;21.23;12.98;;;5.30;99.90;;;;;;5092914;28;20039;-69
2020/12/07 13:08:06;;;;;;;20.98;12.15;;;5.40;99.90;;;;;;5091420;28;20020;-69
2020/12/07 13:10:32;;;;;;;21.38;12.30;;;5.40;99.90;;;;;;5091425;28;20020;-70